Time;durP1;ratioP1;P1;durP2;ratioP2;P2;SDS_P1;SDS_P2;PMS_P1;PMS_P2;Temp;Humidity;BMP_temperature;BMP_pressure;BME280_temperature;BME280_humidity;BME280_pressure;Samples;Min_cycle;Max_cycle;Signal;HPM_P1;HPM_P2
2023/06/24 00:00:37;;;;;;;2.53;2.05;;;;;;;26.75;43.37;102543.41;5043929;28;20048;-31
2023/06/24 00:03:07;;;;;;;2.78;1.90;;;;;;;26.75;43.10;102538.81;5042609;28;20052;-31
2023/06/24 00:05:34;;;;;;;2.83;2.05;;;;;;;26.75;43.28;102543.41;5042475;28;20109;-31
2023/06/24 00:08:02;;;;;;;3.55;2.40;;;;;;;26.74;43.21;102547.16;5044110;28;20095;-31
2023/06/24 00:10:30;;;;;;;2.88;2.22;;;;;;;26.74;43.28;102542.56;5043954;28;20053;-31
2023/06/24 00:12:56;;;;;;;2.45;2.20;;;;;;;26.73;43.20;102540.81;5039804;28;20111;-30
2023/06/24 00:15:23;;;;;;;2.72;1.88;;;;;;;26.73;43.21;102551.72;5040565;28;20069;-31
2023/06/24 00:17:50;;;;;;;2.30;2.10;;;;;;;26.73;43.09;102545.41;5040142;28;20050;-31
2023/06/24 00:20:17;;;;;;;2.55;2.10;;;;;;;26.72;43.48;102550.00;5041825;28;20057;-32
2023/06/24 00:22:48;;;;;;;4.05;2.58;;;;;;;26.71;43.46;102545.59;5033748;28;20183;-31
2023/06/24 00:25:15;;;;;;;2.72;2.00;;;;;;;26.71;43.43;102548.31;5043260;28;20058;-32
2023/06/24 00:27:42;;;;;;;2.92;2.00;;;;;;;26.71;43.18;102544.75;5039266;28;20085;-32
2023/06/24 00:30:10;;;;;;;3.95;2.17;;;;;;;26.70;43.67;102543.06;5037285;28;20053;-31
2023/06/24 00:32:36;;;;;;;2.45;1.90;;;;;;;26.69;43.45;102547.63;5035616;28;20045;-31
2023/06/24 00:35:03;;;;;;;2.88;1.98;;;;;;;26.68;43.29;102548.66;5038027;28;20136;-30
2023/06/24 00:37:30;;;;;;;2.67;1.90;;;;;;;26.68;43.36;102551.38;5036447;28;20046;-31
2023/06/24 00:39:57;;;;;;;2.30;2.05;;;;;;;26.68;43.25;102553.25;5038755;28;20096;-31
2023/06/24 00:42:23;;;;;;;2.40;2.00;;;;;;;26.67;43.38;102546.97;5046979;28;20048;-31
2023/06/24 00:44:50;;;;;;;2.97;2.10;;;;;;;26.66;43.37;102542.56;5046807;28;20394;-31
2023/06/24 00:47:18;;;;;;;2.75;2.25;;;;;;;26.67;43.14;102543.41;5033780;28;20076;-31
2023/06/24 00:49:45;;;;;;;2.10;1.80;;;;;;;26.65;43.43;102546.28;5042887;28;20049;-31
2023/06/24 00:52:15;;;;;;;2.20;2.00;;;;;;;26.66;43.22;102538.97;5038924;28;20059;-31
2023/06/24 00:54:43;;;;;;;2.17;1.98;;;;;;;26.65;43.43;102540.81;5044258;28;20132;-32
2023/06/24 00:57:10;;;;;;;2.50;2.03;;;;;;;26.65;43.43;102539.97;5034251;28;20085;-31
2023/06/24 00:59:38;;;;;;;2.10;1.83;;;;;;;26.64;43.22;102546.44;5041657;28;20052;-31
2023/06/24 01:02:04;;;;;;;2.40;1.80;;;;;;;26.63;43.26;102542.03;5042711;28;20053;-31
2023/06/24 01:04:33;;;;;;;3.45;1.92;;;;;;;26.62;43.40;102548.50;5039277;28;20057;-31
2023/06/24 01:07:01;;;;;;;2.13;1.70;;;;;;;26.61;43.31;102544.06;5038972;28;20132;-32
2023/06/24 01:09:28;;;;;;;2.17;1.75;;;;;;;26.60;43.54;102534.22;5038666;28;20057;-31
2023/06/24 01:11:55;;;;;;;2.10;1.58;;;;;;;26.58;43.37;102537.97;5037086;28;20053;-32
2023/06/24 01:14:22;;;;;;;2.50;2.03;;;;;;;26.58;43.33;102532.53;5038372;28;20049;-32
2023/06/24 01:17:12;;;;;;;1.95;1.75;;;;;;;26.55;43.29;102521.97;5040696;28;20234;-32
2023/06/24 01:20:10;;;;;;;3.25;2.03;;;;;;;26.55;43.48;102521.97;5037244;28;20068;-31
2023/06/24 01:22:57;;;;;;;2.40;1.80;;;;;;;26.55;43.39;102530.13;5039855;28;20136;-31
2023/06/24 01:25:26;;;;;;;1.83;1.63;;;;;;;26.54;43.24;102528.44;5040244;28;20080;-31
2023/06/24 01:28:33;;;;;;;2.38;1.70;;;;;;;26.52;43.40;102527.75;5039048;28;20135;-31
2023/06/24 01:31:32;;;;;;;2.55;1.70;;;;;;;26.50;43.59;102524.34;5042000;28;20088;-32
2023/06/24 01:34:34;;;;;;;2.20;2.00;;;;;;;26.50;43.28;102515.34;5039840;28;20053;-31
2023/06/24 01:37:19;;;;;;;3.50;1.75;;;;;;;26.50;43.44;102518.91;5040217;28;20053;-32
2023/06/24 01:40:24;;;;;;;1.85;1.60;;;;;;;26.46;43.58;102514.84;5040181;28;20134;-31
2023/06/24 01:42:50;;;;;;;2.65;1.80;;;;;;;26.48;43.57;102509.22;5018425;28;20081;-31
2023/06/24 01:45:23;;;;;;;1.90;1.60;;;;;;;26.46;43.43;102519.44;5033644;28;20059;-31
2023/06/24 01:48:04;;;;;;;1.90;1.50;;;;;;;26.44;43.64;102515.97;5037940;28;20095;-31
2023/06/24 01:50:33;;;;;;;2.15;1.67;;;;;;;26.43;43.51;102517.84;5039927;28;20764;-31
2023/06/24 01:53:05;;;;;;;2.72;1.75;;;;;;;26.42;43.36;102518.88;5034510;28;20137;-31
2023/06/24 01:55:33;;;;;;;1.70;1.52;;;;;;;26.41;43.43;102517.16;5038473;28;20536;-31
2023/06/24 01:58:05;;;;;;;2.10;1.73;;;;;;;26.41;43.58;102513.59;5035912;28;20049;-31
2023/06/24 02:00:34;;;;;;;2.35;1.70;;;;;;;26.39;43.43;102519.22;5038137;28;20164;-32
2023/06/24 02:03:04;;;;;;;3.08;1.80;;;;;;;26.38;43.45;102520.25;5037466;28;20049;-31
2023/06/24 02:05:32;;;;;;;1.52;1.40;;;;;;;26.38;43.57;102514.81;5067051;28;20352;-31
2023/06/24 02:08:01;;;;;;;1.98;1.77;;;;;;;26.37;43.61;102510.38;5036778;28;20418;-32
2023/06/24 02:10:29;;;;;;;2.88;2.10;;;;;;;26.37;43.61;102509.50;5037141;28;20048;-32
2023/06/24 02:12:56;;;;;;;1.90;1.70;;;;;;;26.34;43.48;102500.69;5040780;28;20040;-31
2023/06/24 02:15:24;;;;;;;2.75;2.05;;;;;;;26.34;43.66;102503.41;5046686;28;20049;-31
2023/06/24 02:17:56;;;;;;;1.90;1.70;;;;;;;26.33;43.42;102500.84;5047595;28;20076;-31
2023/06/24 02:20:28;;;;;;;2.17;1.97;;;;;;;26.32;43.58;102504.59;5044956;28;20088;-31
2023/06/24 02:22:57;;;;;;;2.60;2.17;;;;;;;26.31;43.68;102494.75;5048722;28;20483;-31
2023/06/24 02:25:25;;;;;;;2.42;1.83;;;;;;;26.30;43.79;102503.94;5047923;28;20053;-32
2023/06/24 02:27:54;;;;;;;2.17;1.75;;;;;;;26.29;43.52;102500.34;5043812;28;20348;-31
2023/06/24 02:30:22;;;;;;;2.95;1.95;;;;;;;26.29;43.73;102494.91;5046734;28;20045;-31
2023/06/24 02:32:49;;;;;;;2.60;1.90;;;;;;;26.27;43.83;102491.50;5044839;28;20561;-31
2023/06/24 02:35:16;;;;;;;2.20;1.58;;;;;;;26.27;43.51;102487.94;5044983;28;20124;-31
2023/06/24 02:37:42;;;;;;;2.22;2.00;;;;;;;26.26;43.83;102495.25;5048360;28;20055;-31
2023/06/24 02:40:10;;;;;;;2.25;1.80;;;;;;;26.26;43.63;102499.84;5047857;28;20089;-31
2023/06/24 02:42:36;;;;;;;2.30;1.95;;;;;;;26.24;43.80;102497.28;5046994;28;20335;-31
2023/06/24 02:45:04;;;;;;;1.58;1.40;;;;;;;26.24;43.68;102497.28;5042290;28;20417;-31
2023/06/24 02:47:33;;;;;;;1.73;1.60;;;;;;;26.23;43.86;102494.72;5044302;28;20049;-31
2023/06/24 02:50:01;;;;;;;2.10;1.70;;;;;;;26.22;43.77;102485.72;5042501;28;20381;-31
2023/06/24 02:52:28;;;;;;;2.85;1.98;;;;;;;26.22;43.66;102498.47;5038656;28;20433;-31
2023/06/24 02:54:57;;;;;;;2.08;1.88;;;;;;;26.21;43.71;102492.19;5042129;28;20052;-31
2023/06/24 02:57:26;;;;;;;2.22;1.92;;;;;;;26.21;43.90;102502.19;5037781;28;20060;-31
2023/06/24 02:59:52;;;;;;;2.10;1.90;;;;;;;26.20;43.70;102503.22;5039457;28;20231;-32
2023/06/24 03:02:19;;;;;;;1.98;1.70;;;;;;;26.19;43.88;102499.66;5040340;28;20049;-32
2023/06/24 03:04:48;;;;;;;2.65;1.90;;;;;;;26.18;43.85;102494.41;5039424;28;20104;-31
2023/06/24 03:07:16;;;;;;;2.00;1.60;;;;;;;26.17;43.84;102501.72;5043649;28;20136;-31
2023/06/24 03:09:43;;;;;;;2.05;1.85;;;;;;;26.16;43.79;102489.09;5038591;28;20049;-31
2023/06/24 03:12:10;;;;;;;2.53;1.60;;;;;;;26.16;43.83;102490.97;5043450;28;20056;-31
2023/06/24 03:14:37;;;;;;;2.03;1.70;;;;;;;26.14;43.90;102493.88;5040228;28;20061;-31
2023/06/24 03:17:04;;;;;;;2.17;1.77;;;;;;;26.14;43.83;102485.72;5038359;28;20080;-31
2023/06/24 03:19:30;;;;;;;2.78;1.75;;;;;;;26.14;43.73;102484.88;5037875;28;20054;-32
2023/06/24 03:21:57;;;;;;;3.20;2.22;;;;;;;26.14;43.80;102490.31;5043170;28;20106;-31
2023/06/24 03:24:24;;;;;;;2.72;1.75;;;;;;;26.11;43.89;102477.91;5044695;28;20053;-33
2023/06/24 03:26:56;;;;;;;2.08;1.88;;;;;;;26.11;43.63;102477.06;5043433;28;20050;-31
2023/06/24 03:29:23;;;;;;;2.25;1.70;;;;;;;26.09;43.85;102483.50;5036406;28;20073;-31
2023/06/24 03:31:50;;;;;;;2.20;1.73;;;;;;;26.10;43.88;102487.09;5035603;28;20063;-31
2023/06/24 03:34:17;;;;;;;1.98;1.77;;;;;;;26.09;44.03;102490.78;5043769;28;20061;-32
2023/06/24 03:36:43;;;;;;;1.73;1.63;;;;;;;26.08;43.84;102500.81;5040307;28;20119;-32
2023/06/24 03:39:10;;;;;;;2.20;1.75;;;;;;;26.07;43.86;102496.41;5043754;28;20080;-31
2023/06/24 03:41:36;;;;;;;1.98;1.65;;;;;;;26.07;43.71;102496.41;5044963;28;20103;-32
2023/06/24 03:44:03;;;;;;;2.28;1.77;;;;;;;26.05;43.91;102493.03;5045014;28;20100;-31
2023/06/24 03:46:32;;;;;;;1.95;1.75;;;;;;;26.07;43.90;102498.28;5044299;28;20411;-32
2023/06/24 03:49:00;;;;;;;2.65;1.90;;;;;;;26.05;44.03;102501.19;5044838;28;20128;-32
2023/06/24 03:51:27;;;;;;;3.60;1.85;;;;;;;26.05;43.78;102498.47;5044485;28;20437;-32
2023/06/24 03:53:53;;;;;;;2.20;1.80;;;;;;;26.03;44.02;102495.03;5044235;28;20077;-32
2023/06/24 03:56:20;;;;;;;2.08;1.88;;;;;;;26.04;43.95;102494.00;5044435;28;20049;-31
2023/06/24 03:58:47;;;;;;;1.90;1.65;;;;;;;26.04;44.01;102493.16;5046894;28;20060;-32
2023/06/24 04:01:13;;;;;;;2.15;1.60;;;;;;;26.04;43.86;102502.16;5048851;28;20088;-32
2023/06/24 04:03:40;;;;;;;1.63;1.52;;;;;;;26.04;43.79;102498.59;5044567;28;20052;-32
2023/06/24 04:06:06;;;;;;;2.08;1.88;;;;;;;26.03;43.92;102495.03;5042831;28;20103;-32
2023/06/24 04:08:33;;;;;;;2.30;1.80;;;;;;;26.04;43.93;102494.00;5046685;28;20451;-31
2023/06/24 04:11:00;;;;;;;2.00;1.77;;;;;;;26.03;43.88;102492.31;5043579;28;20354;-32
2023/06/24 04:13:26;;;;;;;2.00;1.60;;;;;;;26.04;43.78;102490.44;5045700;28;20084;-32
2023/06/24 04:15:53;;;;;;;1.98;1.70;;;;;;;26.04;43.91;102496.72;5045400;28;20118;-32
2023/06/24 04:18:19;;;;;;;2.20;1.67;;;;;;;26.03;43.88;102497.75;5044104;28;20384;-32
2023/06/24 04:20:46;;;;;;;2.42;1.63;;;;;;;26.05;44.06;102508.44;5042111;28;20444;-32
2023/06/24 04:23:14;;;;;;;2.05;1.67;;;;;;;26.05;43.75;102503.00;5074936;28;20135;-31
2023/06/24 04:25:41;;;;;;;1.58;1.27;;;;;;;26.04;43.95;102510.31;5037952;28;20041;-31
2023/06/24 04:28:08;;;;;;;2.20;1.83;;;;;;;26.04;44.38;102509.47;5033770;28;20065;-31
2023/06/24 04:30:41;;;;;;;3.17;2.00;;;;;;;26.04;43.80;102513.03;5037404;28;20061;-31
2023/06/24 04:33:08;;;;;;;2.45;1.70;;;;;;;26.03;43.84;102508.63;5041853;28;20049;-32
2023/06/24 04:35:35;;;;;;;2.38;1.67;;;;;;;26.04;43.70;102506.75;5040938;28;20527;-32
2023/06/24 04:38:02;;;;;;;2.60;2.20;;;;;;;26.03;43.79;102507.78;5043705;28;20365;-32
2023/06/24 04:40:28;;;;;;;2.35;1.60;;;;;;;26.03;44.07;102515.94;5041015;28;20111;-31
2023/06/24 04:42:55;;;;;;;2.38;1.65;;;;;;;26.02;43.77;102506.94;5039369;28;20081;-31
2023/06/24 04:45:21;;;;;;;1.65;1.40;;;;;;;26.02;43.94;102515.09;5033732;28;20421;-32
2023/06/24 04:47:49;;;;;;;2.05;1.85;;;;;;;26.02;43.96;102517.81;5043538;28;20398;-31
2023/06/24 04:50:15;;;;;;;2.00;1.70;;;;;;;26.03;43.87;102516.78;5034382;28;20145;-31
2023/06/24 04:52:42;;;;;;;3.10;1.77;;;;;;;26.03;43.73;102510.50;5039873;28;20111;-31
2023/06/24 04:55:09;;;;;;;1.98;1.48;;;;;;;26.03;43.75;102505.91;5037768;28;20092;-31
2023/06/24 04:57:36;;;;;;;2.63;1.70;;;;;;;26.04;43.55;102504.88;5038586;28;20096;-31
2023/06/24 05:00:03;;;;;;;2.17;1.52;;;;;;;26.04;43.86;102513.03;5047557;28;20048;-32
2023/06/24 05:02:29;;;;;;;2.40;1.70;;;;;;;26.05;43.44;102514.75;5036893;28;20085;-31
2023/06/24 05:04:56;;;;;;;1.70;1.60;;;;;;;26.06;43.63;102516.44;5036910;28;20060;-32
2023/06/24 05:07:22;;;;;;;1.92;1.50;;;;;;;26.08;43.56;102524.44;5040845;28;20449;-32
2023/06/24 05:09:51;;;;;;;4.50;1.90;;;;;;;26.09;43.65;102524.28;5037420;28;20060;-32
2023/06/24 05:12:17;;;;;;;1.83;1.58;;;;;;;26.11;43.33;102520.53;5039679;28;20057;-32
2023/06/24 05:14:44;;;;;;;2.15;1.92;;;;;;;26.14;43.52;102522.94;5037777;28;20356;-31
2023/06/24 05:17:10;;;;;;;2.28;1.80;;;;;;;26.13;43.58;102519.38;5038878;28;20049;-31
2023/06/24 05:19:37;;;;;;;2.47;1.60;;;;;;;26.16;43.75;102526.31;5038064;28;20092;-31
2023/06/24 05:22:04;;;;;;;2.55;1.60;;;;;;;26.16;43.58;102524.44;5041454;28;20053;-31
2023/06/24 05:24:31;;;;;;;2.35;1.52;;;;;;;26.18;43.63;102525.13;5039451;28;20106;-32
2023/06/24 05:27:05;;;;;;;1.90;1.67;;;;;;;26.21;43.61;102529.38;5041663;28;20049;-32
2023/06/24 05:29:32;;;;;;;1.98;1.63;;;;;;;26.23;43.51;102538.22;5039765;28;20422;-32
2023/06/24 05:32:01;;;;;;;2.40;1.65;;;;;;;26.25;43.47;102533.47;5040539;28;20099;-32
2023/06/24 05:34:28;;;;;;;1.95;1.40;;;;;;;26.27;43.41;102535.00;5039280;28;20057;-32
2023/06/24 05:36:54;;;;;;;2.05;1.40;;;;;;;26.30;43.37;102536.53;5041088;28;20049;-32
2023/06/24 05:39:21;;;;;;;2.45;1.50;;;;;;;26.31;43.29;102536.38;5040783;28;20045;-32
2023/06/24 05:41:50;;;;;;;2.17;1.65;;;;;;;26.34;43.50;102532.47;5042378;28;20165;-30
2023/06/24 05:44:20;;;;;;;2.42;1.60;;;;;;;26.37;43.19;102533.97;5042673;28;20050;-30
2023/06/24 05:46:47;;;;;;;2.30;1.80;;;;;;;26.38;43.17;102541.16;5033079;28;20057;-30
2023/06/24 05:49:13;;;;;;;2.72;1.88;;;;;;;26.40;43.39;102534.50;5041678;28;20524;-31
2023/06/24 05:51:40;;;;;;;2.45;1.98;;;;;;;26.41;43.03;102528.03;5039961;28;20080;-31
2023/06/24 05:54:07;;;;;;;2.80;1.70;;;;;;;26.43;42.65;102528.72;5042797;28;20444;-31
2023/06/24 05:56:36;;;;;;;1.98;1.38;;;;;;;26.46;43.02;102535.75;5039455;28;20048;-30
2023/06/24 05:59:06;;;;;;;2.08;1.75;;;;;;;26.47;42.91;102532.84;5038372;28;20341;-33
2023/06/24 06:01:32;;;;;;;1.95;1.55;;;;;;;26.49;43.03;102536.25;5042867;28;20326;-31
2023/06/24 06:03:59;;;;;;;2.63;1.90;;;;;;;26.50;42.97;102534.38;5038756;28;20495;-33
2023/06/24 06:06:26;;;;;;;2.90;1.95;;;;;;;26.51;42.89;102533.38;5037755;28;20330;-30
2023/06/24 06:08:52;;;;;;;2.35;1.67;;;;;;;26.51;42.92;102542.38;5040493;28;20494;-33
2023/06/24 06:11:19;;;;;;;2.13;1.77;;;;;;;26.52;42.92;102537.78;5034065;28;20083;-31
2023/06/24 06:13:45;;;;;;;2.50;1.95;;;;;;;26.53;42.71;102540.34;5036335;28;20556;-32
2023/06/24 06:16:12;;;;;;;1.65;1.50;;;;;;;26.52;42.60;102538.63;5034827;28;20164;-31
2023/06/24 06:18:38;;;;;;;2.00;1.60;;;;;;;26.52;42.95;102537.78;5037614;28;20060;-31
2023/06/24 06:21:05;;;;;;;2.92;2.08;;;;;;;26.53;42.86;102529.47;5032627;28;20140;-30
2023/06/24 06:23:32;;;;;;;2.65;1.80;;;;;;;26.53;42.67;102536.75;5040927;28;20100;-31
2023/06/24 06:25:58;;;;;;;2.38;1.67;;;;;;;26.53;42.64;102540.34;5039353;28;20145;-30
2023/06/24 06:28:25;;;;;;;2.08;1.80;;;;;;;26.54;42.71;102541.19;5044620;28;20346;-31
2023/06/24 06:30:51;;;;;;;3.88;1.63;;;;;;;26.54;42.99;102546.63;5047758;28;20107;-30
2023/06/24 06:33:18;;;;;;;2.03;1.70;;;;;;;26.55;43.00;102542.88;5046348;28;20136;-31
2023/06/24 06:35:45;;;;;;;1.85;1.55;;;;;;;26.56;42.84;102539.97;5042234;28;20369;-30
2023/06/24 06:38:11;;;;;;;2.30;1.50;;;;;;;26.56;42.78;102539.97;5045758;28;20056;-31
2023/06/24 06:40:38;;;;;;;1.83;1.60;;;;;;;26.57;42.94;102540.81;5048086;28;20375;-31
2023/06/24 06:43:05;;;;;;;2.95;2.13;;;;;;;26.57;42.72;102540.81;5041589;28;20049;-31
2023/06/24 06:45:31;;;;;;;3.53;1.88;;;;;;;26.57;43.21;102541.72;5032364;28;20053;-31
2023/06/24 06:47:58;;;;;;;2.50;1.67;;;;;;;26.58;42.45;102539.84;5033465;28;20050;-31
2023/06/24 06:50:25;;;;;;;2.35;1.85;;;;;;;26.58;42.95;102540.69;5032278;28;20041;-31
2023/06/24 06:52:52;;;;;;;2.03;1.70;;;;;;;26.58;42.55;102537.97;5037533;28;20053;-31
2023/06/24 06:55:18;;;;;;;2.88;1.92;;;;;;;26.58;42.80;102543.41;5042358;28;20206;-31
2023/06/24 06:57:45;;;;;;;2.33;1.75;;;;;;;26.59;42.63;102549.69;5036647;28;20056;-31
2023/06/24 07:00:12;;;;;;;3.05;1.40;;;;;;;26.58;42.89;102543.41;5035592;28;20050;-31
2023/06/24 07:02:38;;;;;;;2.97;1.60;;;;;;;26.58;42.91;102540.69;5037430;28;20081;-31
2023/06/24 07:05:06;;;;;;;2.13;1.45;;;;;;;26.58;42.57;102540.69;5033505;28;20085;-31
2023/06/24 07:07:33;;;;;;;2.60;1.80;;;;;;;26.59;42.68;102538.81;5035640;28;20081;-31
2023/06/24 07:09:59;;;;;;;2.58;1.80;;;;;;;26.60;42.81;102545.09;5037603;28;20180;-30
2023/06/24 07:12:26;;;;;;;3.28;1.92;;;;;;;26.60;42.89;102547.81;5036790;28;20045;-31
2023/06/24 07:14:52;;;;;;;1.70;1.50;;;;;;;26.59;42.74;102549.69;5038078;28;20045;-31
2023/06/24 07:17:19;;;;;;;1.98;1.73;;;;;;;26.60;42.84;102547.81;5037305;28;20412;-31
2023/06/24 07:19:45;;;;;;;1.70;1.60;;;;;;;26.59;42.96;102546.97;5037010;28;20049;-32
2023/06/24 07:22:13;;;;;;;1.98;1.67;;;;;;;26.60;43.07;102545.09;5035046;28;20126;-32
2023/06/24 07:24:39;;;;;;;1.83;1.67;;;;;;;26.60;42.66;102540.50;5041462;28;20068;-32
2023/06/24 07:27:06;;;;;;;1.75;1.65;;;;;;;26.60;43.09;102550.53;5040279;28;20136;-32
2023/06/24 07:29:33;;;;;;;1.38;1.20;;;;;;;26.60;42.92;102545.94;5041693;28;20054;-31
2023/06/24 07:31:59;;;;;;;1.75;1.50;;;;;;;26.61;42.90;102541.34;5043063;28;20107;-32
2023/06/24 07:34:26;;;;;;;2.25;1.90;;;;;;;26.61;43.13;102546.78;5039014;28;20049;-32
2023/06/24 07:36:52;;;;;;;3.15;1.90;;;;;;;26.61;42.95;102539.47;5044657;28;20081;-31
2023/06/24 07:39:19;;;;;;;2.28;1.65;;;;;;;26.61;42.78;102552.22;5039312;28;20107;-32
2023/06/24 07:41:46;;;;;;;1.95;1.50;;;;;;;26.61;42.98;102541.34;5037796;28;20499;-31
2023/06/24 07:44:12;;;;;;;4.22;1.80;;;;;;;26.61;42.93;102546.78;5040562;28;20111;-32
2023/06/24 07:46:39;;;;;;;3.05;2.00;;;;;;;26.61;42.79;102544.91;5036243;28;20140;-32
2023/06/24 07:49:05;;;;;;;2.60;1.90;;;;;;;26.62;42.95;102543.06;5037742;28;20079;-31
2023/06/24 07:51:34;;;;;;;3.50;2.03;;;;;;;26.61;43.16;102541.34;5036360;28;20092;-32
2023/06/24 07:54:01;;;;;;;2.33;1.77;;;;;;;26.62;43.00;102540.34;5047868;28;20136;-32
2023/06/24 07:56:28;;;;;;;2.08;1.60;;;;;;;26.62;43.13;102541.19;5034389;28;20167;-32
2023/06/24 07:58:54;;;;;;;2.10;1.80;;;;;;;26.62;43.23;102534.91;5043815;28;20079;-31
2023/06/24 08:01:21;;;;;;;3.33;1.80;;;;;;;26.64;42.85;102546.44;5049330;28;20103;-31
2023/06/24 08:03:48;;;;;;;1.88;1.58;;;;;;;26.64;42.99;102546.44;5048473;28;20083;-31
2023/06/24 08:06:15;;;;;;;2.83;1.70;;;;;;;26.64;43.06;102549.16;5047783;28;20445;-31
2023/06/24 08:08:41;;;;;;;2.70;1.70;;;;;;;26.64;43.01;102543.72;5046572;28;20048;-33
2023/06/24 08:11:08;;;;;;;2.78;1.77;;;;;;;26.64;42.93;102536.41;5040644;28;20099;-31
2023/06/24 08:13:34;;;;;;;2.05;1.65;;;;;;;26.64;43.10;102541.00;5049254;28;20048;-31
2023/06/24 08:16:01;;;;;;;2.38;1.40;;;;;;;26.66;43.05;102545.28;5044447;28;20052;-32
2023/06/24 08:18:28;;;;;;;2.58;1.70;;;;;;;26.65;42.92;102543.56;5048044;28;20045;-32
2023/06/24 08:20:54;;;;;;;2.75;1.83;;;;;;;26.67;42.92;102546.13;5047066;28;20068;-31
2023/06/24 08:23:21;;;;;;;4.00;2.35;;;;;;;26.68;42.97;102542.38;5047701;28;20056;-32
2023/06/24 08:25:48;;;;;;;3.58;2.15;;;;;;;26.68;42.85;102543.22;5046577;28;20052;-32
2023/06/24 08:28:14;;;;;;;2.95;1.95;;;;;;;26.68;43.07;102539.66;5044464;28;20057;-31
2023/06/24 08:30:41;;;;;;;3.83;2.50;;;;;;;26.68;42.93;102537.78;5044527;28;20618;-31
2023/06/24 08:33:07;;;;;;;2.38;2.08;;;;;;;26.69;43.16;102536.75;5045772;28;20057;-32
2023/06/24 08:35:34;;;;;;;2.92;2.30;;;;;;;26.70;43.18;102537.63;5042792;28;20049;-33
2023/06/24 08:38:01;;;;;;;3.50;2.03;;;;;;;26.70;43.07;102541.19;5036007;28;20048;-32
2023/06/24 08:40:28;;;;;;;2.88;2.05;;;;;;;26.70;42.98;102535.75;5042593;28;20049;-31
2023/06/24 08:42:55;;;;;;;3.50;2.03;;;;;;;26.72;43.10;102541.00;5037580;28;20491;-31
2023/06/24 08:45:22;;;;;;;3.88;2.10;;;;;;;26.72;42.82;102544.56;5033794;28;20127;-31
2023/06/24 08:47:50;;;;;;;2.85;1.80;;;;;;;26.73;43.15;102539.97;5036593;28;20057;-32
2023/06/24 08:50:18;;;;;;;2.80;1.95;;;;;;;26.74;43.05;102538.97;5039800;28;20041;-31
2023/06/24 08:52:50;;;;;;;4.70;2.20;;;;;;;26.75;43.07;102540.69;5036759;28;20136;-31
2023/06/24 08:55:20;;;;;;;5.43;2.22;;;;;;;26.74;43.12;102542.56;5039796;28;20139;-32
2023/06/24 08:57:49;;;;;;;4.38;1.80;;;;;;;26.75;43.16;102541.53;5037150;28;20455;-31
2023/06/24 09:00:16;;;;;;;2.90;1.92;;;;;;;26.76;43.19;102535.06;5036633;28;20099;-32
2023/06/24 09:02:43;;;;;;;3.63;2.30;;;;;;;26.78;42.80;102538.47;5039327;28;20437;-32
2023/06/24 09:05:10;;;;;;;2.83;2.08;;;;;;;26.77;42.84;102542.19;5035201;28;20445;-32
2023/06/24 09:07:37;;;;;;;3.25;2.25;;;;;;;26.79;43.22;102542.03;5036926;28;20309;-32
2023/06/24 09:10:04;;;;;;;2.83;2.10;;;;;;;26.81;43.26;102537.25;5035637;28;20110;-32
2023/06/24 09:12:34;;;;;;;4.25;1.90;;;;;;;26.81;43.45;102539.97;5035800;28;20124;-31
2023/06/24 09:15:02;;;;;;;2.45;1.70;;;;;;;26.83;43.23;102541.50;5034425;28;20080;-31
2023/06/24 09:17:28;;;;;;;4.10;2.22;;;;;;;26.84;43.42;102539.63;5032899;28;20393;-31
2023/06/24 09:20:04;;;;;;;2.58;1.58;;;;;;;26.86;43.07;102534.91;5040122;28;20068;-33
2023/06/24 09:22:31;;;;;;;1.90;1.60;;;;;;;26.88;43.23;102538.28;5040945;28;20132;-32
2023/06/24 09:25:01;;;;;;;2.85;2.13;;;;;;;26.91;43.52;102532.50;5042976;28;20147;-31
2023/06/24 09:27:31;;;;;;;2.25;1.70;;;;;;;26.93;43.43;102538.59;5040969;28;20049;-33
2023/06/24 09:29:58;;;;;;;2.33;1.50;;;;;;;26.97;43.27;102533.66;5041854;28;20052;-31
2023/06/24 09:32:31;;;;;;;2.60;2.00;;;;;;;26.99;43.56;102527.03;5038900;28;20061;-32
2023/06/24 09:34:58;;;;;;;2.58;1.83;;;;;;;27.03;43.47;102530.28;5041979;28;20120;-32
2023/06/24 09:37:31;;;;;;;3.03;2.08;;;;;;;27.06;43.69;102535.38;5038943;28;20585;-32
2023/06/24 09:39:58;;;;;;;2.92;1.55;;;;;;;27.08;43.27;102517.81;5042261;28;20045;-31
2023/06/24 09:42:24;;;;;;;2.10;1.67;;;;;;;27.12;43.74;102523.81;5042017;28;20389;-31
2023/06/24 09:44:55;;;;;;;2.80;1.90;;;;;;;27.16;43.34;102532.47;5040687;28;20477;-32
2023/06/24 09:47:26;;;;;;;2.67;1.98;;;;;;;27.19;43.29;102523.97;5040892;28;20507;-31
2023/06/24 09:49:54;;;;;;;2.78;1.95;;;;;;;27.22;43.41;102523.63;5043723;28;20051;-32
2023/06/24 09:52:22;;;;;;;4.05;1.70;;;;;;;27.25;43.02;102520.53;5047758;28;20077;-31
2023/06/24 09:54:54;;;;;;;2.45;1.73;;;;;;;27.28;43.38;102514.75;5044802;28;20157;-31
2023/06/24 09:57:27;;;;;;;2.30;1.90;;;;;;;27.31;43.58;102522.59;5040940;28;20056;-32
2023/06/24 09:59:54;;;;;;;3.13;1.90;;;;;;;27.34;43.06;102516.78;5041253;28;20308;-32
2023/06/24 10:02:21;;;;;;;2.42;1.90;;;;;;;27.37;43.46;102516.41;5041517;28;20385;-31
2023/06/24 10:04:48;;;;;;;3.53;2.10;;;;;;;27.40;42.98;102512.50;5040940;28;20057;-32
2023/06/24 10:07:15;;;;;;;3.38;2.08;;;;;;;27.41;43.50;102512.31;5038614;28;20072;-32
2023/06/24 10:09:42;;;;;;;2.58;1.80;;;;;;;27.45;43.24;102512.81;5040655;28;20055;-31
2023/06/24 10:12:10;;;;;;;3.13;1.83;;;;;;;27.49;43.13;102511.44;5039972;28;20053;-32
2023/06/24 10:14:37;;;;;;;2.75;1.98;;;;;;;27.51;43.37;102517.56;5040738;28;20044;-32
2023/06/24 10:17:05;;;;;;;2.00;1.70;;;;;;;27.53;43.05;102507.34;5035610;28;20053;-32
2023/06/24 10:19:39;;;;;;;3.58;2.28;;;;;;;27.53;43.41;102513.63;5038999;28;20045;-32
2023/06/24 10:22:12;;;;;;;2.47;1.60;;;;;;;27.56;43.32;102510.56;5038189;28;20123;-33
2023/06/24 10:24:44;;;;;;;3.28;2.20;;;;;;;27.60;42.98;102515.66;5043996;28;20092;-31
2023/06/24 10:27:16;;;;;;;2.55;1.88;;;;;;;27.61;43.69;102506.47;5039546;28;20053;-31
2023/06/24 10:29:47;;;;;;;3.40;2.00;;;;;;;27.64;43.32;102506.09;5039639;28;20140;-31
2023/06/24 10:32:14;;;;;;;3.38;2.15;;;;;;;27.66;43.54;102504.03;5034362;28;20081;-32
2023/06/24 10:34:41;;;;;;;2.10;1.60;;;;;;;27.67;42.78;102497.59;5036690;28;20079;-32
2023/06/24 10:37:34;;;;;;;2.08;1.60;;;;;;;27.70;43.60;102499.94;5033202;28;20050;-31
2023/06/24 10:40:02;;;;;;;2.80;1.80;;;;;;;27.72;43.42;102506.91;5035411;28;20046;-31
2023/06/24 10:42:33;;;;;;;2.58;1.80;;;;;;;27.73;43.15;102502.31;5032459;28;20095;-31
2023/06/24 10:45:19;;;;;;;2.80;1.90;;;;;;;27.74;43.43;102495.84;5036809;28;20104;-31
2023/06/24 10:47:56;;;;;;;2.75;1.80;;;;;;;27.78;43.46;102494.50;5036263;28;20052;-31
2023/06/24 10:50:23;;;;;;;2.05;1.70;;;;;;;27.80;43.62;102496.00;5036669;28;20048;-33
2023/06/24 10:52:56;;;;;;;2.88;2.30;;;;;;;27.83;43.47;102502.97;5034138;28;20063;-31
2023/06/24 10:55:27;;;;;;;5.15;1.92;;;;;;;27.85;42.72;102498.19;5038385;28;20076;-32
2023/06/24 10:57:54;;;;;;;2.28;2.00;;;;;;;27.87;43.38;102489.84;5038469;28;20057;-32
2023/06/24 11:00:21;;;;;;;2.20;1.80;;;;;;;27.87;43.08;102485.25;5047848;28;20639;-32
2023/06/24 11:02:48;;;;;;;2.58;1.73;;;;;;;27.90;42.76;102482.16;5043576;28;20045;-31
2023/06/24 11:05:15;;;;;;;2.45;2.00;;;;;;;27.92;43.38;102484.69;5042391;28;20060;-32
2023/06/24 11:07:41;;;;;;;2.38;1.80;;;;;;;27.93;43.13;102487.22;5039701;28;20065;-32
2023/06/24 11:10:11;;;;;;;3.28;2.15;;;;;;;27.95;43.11;102482.47;5043323;28;20046;-32
2023/06/24 11:12:40;;;;;;;2.85;1.90;;;;;;;27.97;43.42;102485.00;5041659;28;20437;-31
2023/06/24 11:15:09;;;;;;;4.85;2.03;;;;;;;27.99;42.60;102477.50;5042506;28;20053;-31
2023/06/24 11:17:37;;;;;;;2.95;2.00;;;;;;;28.01;43.36;102481.72;5040650;28;20064;-32
2023/06/24 11:20:12;;;;;;;2.17;1.80;;;;;;;28.01;42.96;102473.53;5039888;28;20136;-32
2023/06/24 11:22:44;;;;;;;2.50;1.88;;;;;;;28.04;42.79;102473.19;5041617;28;20441;-32
2023/06/24 11:25:23;;;;;;;2.72;2.00;;;;;;;28.05;43.13;102477.59;5043340;28;20077;-32
2023/06/24 11:27:53;;;;;;;2.58;1.73;;;;;;;28.08;42.54;102481.00;5041681;28;20384;-32
2023/06/24 11:30:20;;;;;;;2.70;1.80;;;;;;;28.10;43.22;102474.38;5043780;28;20333;-32